Van Buren, Washington
Current Conditions -  °F | °C
As of 9:00 PM on Thursday 27 Nov 2014 (Local Time) from CYXX Reporting Station
Light Rain Light Rain  
Wind Chill: 12°   Ceiling: 4000
Heat Index: 12°   Visibility: 10mi
Dew Point: 11°   Wind: 20mph
Humidity: 94%   Direction: 190°S
Pressure: 29.61"   Gusts: 25mph
Location:  48.9068°N, 122.295°W
Report Text: CYXX 280500Z 19017G22KT 10SM -RA SCT025 BKN040 OVC080 12/11 A2961 RMK SC3SC3AC2 SLP027 DENSITY ALT 200FT
Loading
Personal Weather Stations






























Interactive Weather Map New forecast layout! Learn more

10-Day Weather Forecast

Advertisements
Track Severe Weather on mobile